High Hill, Missouri
Current Conditions -  °F | °C
As of 10:55 AM on Sunday 23 Nov 2014 (Local Time) from KFYG Reporting Station
Light Rain Light Rain  
Wind Chill: 55°   Ceiling: 900
Heat Index: 55°   Visibility: 2.5mi
Dew Point: 54°   Wind: 10mph
Humidity: 94%   Direction: 140°SE
Pressure: 29.54"   Gusts: NA
Location:  38.88°N, 91.38°W
Report Text: KFYG 231655Z AUTO 14009KT 2 1/2SM -RA BKN009 13/12 A2954 RMK AO2 P0002
Loading
Personal Weather Stations






























Interactive Weather Map New forecast layout! Learn more

10-Day Weather Forecast

Advertisements
Track Severe Weather on mobile